Time;durP1;ratioP1;P1;durP2;ratioP2;P2;SDS_P1;SDS_P2;PMS_P1;PMS_P2;Temp;Humidity;BMP_temperature;BMP_pressure;BME280_temperature;BME280_humidity;BME280_pressure;Samples;Min_cycle;Max_cycle;Signal;HPM_P1;HPM_P2
2021/12/27 00:01:53;;;;;;;62.70;40.15;;;17.70;69.20;;;;;;5082344;28;20020;-34
2021/12/27 00:04:18;;;;;;;62.97;40.15;;;17.70;69.20;;;;;;5087487;28;20031;-37
2021/12/27 00:06:44;;;;;;;59.55;40.05;;;17.70;69.30;;;;;;5083272;28;20020;-35
2021/12/27 00:09:10;;;;;;;58.72;39.42;;;17.60;69.40;;;;;;5096179;28;20020;-31
2021/12/27 00:11:35;;;;;;;66.00;39.72;;;17.60;69.50;;;;;;5090868;28;20119;-33
2021/12/27 00:14:01;;;;;;;70.10;38.28;;;17.60;69.50;;;;;;5099751;28;20385;-34
2021/12/27 00:16:26;;;;;;;60.30;39.28;;;17.60;69.50;;;;;;5091665;28;20439;-33
2021/12/27 00:18:52;;;;;;;56.63;37.00;;;17.60;69.40;;;;;;5104454;28;20468;-34
2021/12/27 00:21:17;;;;;;;57.85;38.13;;;17.60;69.50;;;;;;5111741;28;20020;-38
2021/12/27 00:23:43;;;;;;;53.88;36.75;;;17.50;69.30;;;;;;5099285;28;20073;-35
2021/12/27 00:26:09;;;;;;;53.88;36.03;;;17.50;69.30;;;;;;5110986;28;20496;-36
2021/12/27 00:28:34;;;;;;;56.53;36.50;;;17.50;69.30;;;;;;5101322;27;20506;-33
2021/12/27 00:31:01;;;;;;;52.83;34.80;;;17.50;69.40;;;;;;5107980;28;20031;-32
2021/12/27 00:33:26;;;;;;;55.53;35.60;;;17.50;69.40;;;;;;5101464;28;20108;-35
2021/12/27 00:35:52;;;;;;;59.58;34.40;;;17.40;69.40;;;;;;5097206;28;20489;-33
2021/12/27 00:38:18;;;;;;;52.35;33.88;;;17.40;69.40;;;;;;5095138;28;20084;-33
2021/12/27 00:40:44;;;;;;;52.42;35.03;;;17.40;69.40;;;;;;5100005;28;20028;-33
2021/12/27 00:43:10;;;;;;;51.45;34.35;;;17.40;69.50;;;;;;5091975;28;20015;-34
2021/12/27 00:45:35;;;;;;;55.83;34.50;;;17.40;69.50;;;;;;5101918;28;20028;-35
2021/12/27 00:48:01;;;;;;;48.20;32.15;;;17.40;69.40;;;;;;5090631;28;20020;-33
2021/12/27 00:50:27;;;;;;;45.92;30.92;;;17.30;69.40;;;;;;5088497;28;20103;-31
2021/12/27 00:52:53;;;;;;;50.20;32.92;;;17.40;69.60;;;;;;5083782;28;20028;-39
2021/12/27 00:55:19;;;;;;;46.05;31.67;;;17.30;69.50;;;;;;5097135;28;20024;-39
2021/12/27 00:57:46;;;;;;;48.03;31.48;;;17.30;69.60;;;;;;5110682;28;20116;-36
2021/12/27 01:00:16;;;;;;;49.58;30.80;;;17.30;69.60;;;;;;5096941;28;20036;-39
2021/12/27 01:02:42;;;;;;;49.47;32.03;;;17.30;69.40;;;;;;5111161;28;20385;-39
2021/12/27 01:05:09;;;;;;;45.55;30.02;;;17.30;69.60;;;;;;5098574;28;20016;-37
2021/12/27 01:07:35;;;;;;;45.63;30.13;;;17.30;69.60;;;;;;5089065;28;20035;-38
2021/12/27 01:10:28;;;;;;;47.88;30.98;;;17.20;69.60;;;;;;5087689;28;20423;-37
2021/12/27 01:13:05;;;;;;;46.13;31.08;;;17.30;69.70;;;;;;5070224;28;20033;-38
2021/12/27 01:15:48;;;;;;;43.47;30.67;;;17.20;69.60;;;;;;5099491;28;20023;-34
2021/12/27 01:18:16;;;;;;;44.40;30.52;;;17.20;69.60;;;;;;5070257;28;20111;-37
2021/12/27 01:20:43;;;;;;;39.95;28.63;;;17.20;69.70;;;;;;5090389;28;20039;-38
2021/12/27 01:23:09;;;;;;;41.03;28.55;;;17.10;69.60;;;;;;5089450;28;20032;-32
2021/12/27 01:25:35;;;;;;;39.70;27.95;;;17.20;69.50;;;;;;5091872;28;20023;-32
2021/12/27 01:28:01;;;;;;;46.30;29.30;;;17.20;69.80;;;;;;5107676;28;20024;-33
2021/12/27 01:30:27;;;;;;;43.10;28.98;;;17.20;69.80;;;;;;5102885;28;20031;-31
2021/12/27 01:32:57;;;;;;;40.08;26.20;;;17.10;69.80;;;;;;5105708;28;20110;-31
2021/12/27 01:35:24;;;;;;;40.83;28.08;;;17.10;69.80;;;;;;5096885;28;20477;-34
2021/12/27 01:37:52;;;;;;;37.45;28.13;;;17.00;69.60;;;;;;5097132;28;20048;-33
2021/12/27 01:40:22;;;;;;;44.45;26.73;;;17.10;69.90;;;;;;5091738;28;20533;-34
2021/12/27 01:43:05;;;;;;;38.08;27.13;;;17.00;69.50;;;;;;5098182;27;20028;-31
2021/12/27 01:45:32;;;;;;;41.92;26.02;;;17.00;69.80;;;;;;5093702;28;20024;-33
2021/12/27 01:47:58;;;;;;;38.65;26.27;;;17.00;69.90;;;;;;5107709;28;20108;-35
2021/12/27 01:50:24;;;;;;;43.25;28.45;;;17.00;69.60;;;;;;5108008;28;20477;-32
2021/12/27 01:52:50;;;;;;;34.10;25.73;;;16.90;69.80;;;;;;5080430;28;20017;-30
2021/12/27 01:55:16;;;;;;;39.55;26.42;;;16.90;69.80;;;;;;5090126;28;20131;-37
2021/12/27 01:57:42;;;;;;;42.08;26.23;;;16.90;69.80;;;;;;5101005;28;20099;-35
2021/12/27 02:00:09;;;;;;;42.28;27.05;;;16.90;69.80;;;;;;5089782;28;20099;-31
2021/12/27 02:02:35;;;;;;;39.78;25.73;;;16.80;70.00;;;;;;5095985;28;20016;-31
2021/12/27 02:05:00;;;;;;;37.85;24.73;;;16.90;69.90;;;;;;5109392;28;20027;-35
2021/12/27 02:07:26;;;;;;;39.58;26.05;;;16.80;69.80;;;;;;5086012;27;20123;-34
2021/12/27 02:10:02;;;;;;;33.33;24.55;;;16.90;70.10;;;;;;5109520;28;20168;-35
2021/12/27 02:12:31;;;;;;;39.00;25.45;;;16.80;70.00;;;;;;5096655;28;20027;-31
2021/12/27 02:14:57;;;;;;;32.42;22.58;;;16.80;70.00;;;;;;5109122;28;20023;-34
2021/12/27 02:17:23;;;;;;;39.58;25.58;;;16.80;70.10;;;;;;5098776;28;20025;-37
2021/12/27 02:19:51;;;;;;;38.28;25.23;;;16.70;70.00;;;;;;5107657;28;20067;-34
2021/12/27 02:22:17;;;;;;;37.35;24.25;;;16.70;70.00;;;;;;5105431;28;20023;-33
2021/12/27 02:24:43;;;;;;;35.00;22.67;;;16.70;70.00;;;;;;5092893;28;20493;-32
2021/12/27 02:27:13;;;;;;;31.90;23.20;;;16.70;70.10;;;;;;5090622;28;20024;-33
2021/12/27 02:29:39;;;;;;;;;;;16.70;70.10;;;;;;5103768;28;20026;-34
2021/12/27 02:32:06;;;;;;;31.33;21.60;;;16.70;70.20;;;;;;5107558;28;19904;-33
2021/12/27 02:34:31;;;;;;;31.40;22.77;;;16.60;70.00;;;;;;5097654;28;20069;-36
2021/12/27 02:36:57;;;;;;;34.03;21.45;;;16.70;70.20;;;;;;5089147;28;20398;-34
2021/12/27 02:39:25;;;;;;;30.23;22.08;;;16.60;70.20;;;;;;5093835;28;20024;-37
2021/12/27 02:41:51;;;;;;;31.38;21.77;;;16.60;70.20;;;;;;5090282;28;20099;-33
2021/12/27 02:44:17;;;;;;;32.83;22.20;;;16.60;70.20;;;;;;5099832;28;20035;-34
2021/12/27 02:46:42;;;;;;;27.83;21.33;;;16.60;70.20;;;;;;5088977;28;20020;-33
2021/12/27 02:49:08;;;;;;;28.70;20.48;;;16.50;70.10;;;;;;5100908;28;20027;-35
2021/12/27 02:51:33;;;;;;;34.63;22.02;;;16.60;70.40;;;;;;5088974;28;20024;-31
2021/12/27 02:53:59;;;;;;;31.17;21.77;;;16.60;70.40;;;;;;5092691;28;20059;-34
2021/12/27 02:56:24;;;;;;;31.45;21.33;;;16.50;70.40;;;;;;5109238;27;20504;-34
2021/12/27 02:58:50;;;;;;;27.85;19.75;;;16.50;70.20;;;;;;5096476;28;20338;-31
2021/12/27 03:01:20;;;;;;;28.83;20.08;;;16.50;70.50;;;;;;5094566;28;20028;-31
2021/12/27 03:03:45;;;;;;;28.83;19.92;;;16.50;70.40;;;;;;5092053;28;20020;-35
2021/12/27 03:06:11;;;;;;;26.83;19.00;;;16.50;70.40;;;;;;5099321;28;20017;-34
2021/12/27 03:08:38;;;;;;;26.45;18.80;;;16.50;70.50;;;;;;5092341;28;20363;-34
2021/12/27 03:11:06;;;;;;;25.50;19.60;;;16.40;70.50;;;;;;5102689;28;20389;-33
2021/12/27 03:13:34;;;;;;;30.10;20.30;;;16.40;70.30;;;;;;5103822;28;20462;-36
2021/12/27 03:16:14;;;;;;;28.80;19.77;;;16.40;70.50;;;;;;5100549;28;20023;-31
2021/12/27 03:18:42;;;;;;;;;;;16.40;70.50;;;;;;5104783;28;20034;-34
2021/12/27 03:21:08;;;;;;;28.63;19.30;;;16.40;70.40;;;;;;5093283;28;20006;-34
2021/12/27 03:23:36;;;;;;;28.65;19.58;;;16.40;70.30;;;;;;5092555;28;20020;-37
2021/12/27 03:26:02;;;;;;;24.60;18.95;;;16.40;70.60;;;;;;5097439;28;20103;-35
2021/12/27 03:28:28;;;;;;;27.50;19.13;;;16.40;70.50;;;;;;5106900;28;20128;-31
2021/12/27 03:30:53;;;;;;;25.25;18.80;;;16.30;70.50;;;;;;5096983;28;20038;-34
2021/12/27 03:33:22;;;;;;;27.83;18.35;;;16.40;70.70;;;;;;5107998;28;20027;-34
2021/12/27 03:36:08;;;;;;;28.25;19.38;;;16.30;70.50;;;;;;5095682;28;20020;-37
2021/12/27 03:38:39;;;;;;;25.92;18.25;;;16.30;70.70;;;;;;5108561;28;20047;-34
2021/12/27 03:41:07;;;;;;;25.27;18.90;;;16.30;70.70;;;;;;5096079;28;20036;-35
2021/12/27 03:43:32;;;;;;;25.30;17.90;;;16.30;70.50;;;;;;5088368;28;20024;-30
2021/12/27 03:45:58;;;;;;;25.83;17.90;;;16.30;70.40;;;;;;5094987;28;20406;-32
2021/12/27 03:48:24;;;;;;;25.20;17.75;;;16.30;70.60;;;;;;5108470;28;20401;-33
2021/12/27 03:50:49;;;;;;;26.67;18.38;;;16.30;70.40;;;;;;5091452;28;20451;-38
2021/12/27 03:53:15;;;;;;;24.23;17.17;;;16.30;70.90;;;;;;5097495;28;20020;-36
2021/12/27 03:55:41;;;;;;;27.60;18.30;;;16.20;70.70;;;;;;5085705;28;20470;-33
2021/12/27 03:58:09;;;;;;;24.10;16.65;;;16.20;70.50;;;;;;5104485;28;20242;-34
2021/12/27 04:01:00;;;;;;;25.70;16.52;;;16.20;70.80;;;;;;5099580;28;20036;-34
2021/12/27 04:03:26;;;;;;;20.90;15.80;;;16.30;70.60;;;;;;5078818;28;20443;-36
2021/12/27 04:05:52;;;;;;;25.90;16.67;;;16.20;70.70;;;;;;5090262;28;20031;-35
2021/12/27 04:08:18;;;;;;;22.63;15.98;;;16.20;70.70;;;;;;5091222;28;20403;-38
2021/12/27 04:10:44;;;;;;;22.95;15.75;;;16.20;70.80;;;;;;5094146;28;20458;-36
2021/12/27 04:13:11;;;;;;;23.98;16.80;;;16.20;70.80;;;;;;5093701;28;20131;-33
2021/12/27 04:15:38;;;;;;;21.17;16.08;;;16.20;70.90;;;;;;5091095;28;20056;-37
2021/12/27 04:18:05;;;;;;;25.02;17.73;;;16.10;70.60;;;;;;5099006;28;20051;-37
2021/12/27 04:20:30;;;;;;;23.30;15.13;;;16.20;71.30;;;;;;5103987;28;20032;-38
2021/12/27 04:22:56;;;;;;;20.73;15.38;;;16.10;70.70;;;;;;5098106;28;20039;-36
2021/12/27 04:25:22;;;;;;;22.83;16.42;;;16.10;70.90;;;;;;5091615;28;20028;-31
2021/12/27 04:27:49;;;;;;;20.20;15.00;;;16.10;70.90;;;;;;5102302;28;20035;-37
2021/12/27 04:30:16;;;;;;;23.15;15.25;;;16.10;70.90;;;;;;5091563;28;20455;-32
2021/12/27 04:32:42;;;;;;;22.25;15.18;;;16.10;70.70;;;;;;5092595;28;20025;-33
2021/12/27 04:35:09;;;;;;;22.95;15.52;;;16.10;70.70;;;;;;5085461;28;20086;-34
2021/12/27 04:37:35;;;;;;;20.75;15.15;;;16.10;70.60;;;;;;5102864;28;20058;-37
2021/12/27 04:40:02;;;;;;;22.73;16.38;;;16.10;70.80;;;;;;5086127;28;20040;-35
2021/12/27 04:42:31;;;;;;;23.02;15.18;;;16.10;70.90;;;;;;5100096;28;20031;-31
2021/12/27 04:44:58;;;;;;;22.70;15.27;;;16.00;70.60;;;;;;5070956;28;20070;-32
2021/12/27 04:47:24;;;;;;;20.65;15.13;;;16.10;70.90;;;;;;5095715;28;20469;-32
2021/12/27 04:49:49;;;;;;;22.83;14.90;;;16.00;71.00;;;;;;5083318;28;20390;-36
2021/12/27 04:52:15;;;;;;;18.42;14.15;;;16.00;70.90;;;;;;5088039;28;20019;-38
2021/12/27 04:54:40;;;;;;;22.98;15.07;;;16.00;70.80;;;;;;5079408;28;20033;-38
2021/12/27 04:57:06;;;;;;;20.13;13.82;;;16.00;70.90;;;;;;5089432;28;20040;-33
2021/12/27 04:59:32;;;;;;;19.90;13.40;;;16.00;71.00;;;;;;5087400;28;20032;-34
2021/12/27 05:01:58;;;;;;;17.58;13.70;;;16.00;71.00;;;;;;5086980;28;20032;-34
2021/12/27 05:04:23;;;;;;;21.20;14.10;;;16.00;70.90;;;;;;5109521;28;20035;-33
2021/12/27 05:06:49;;;;;;;21.63;13.95;;;16.00;71.10;;;;;;5074230;28;20028;-36
2021/12/27 05:09:14;;;;;;;18.90;14.32;;;16.00;70.90;;;;;;5075059;28;20024;-33
2021/12/27 05:11:41;;;;;;;20.00;13.23;;;16.00;71.00;;;;;;5071370;28;20043;-31
2021/12/27 05:14:07;;;;;;;19.50;13.38;;;16.00;71.20;;;;;;5087332;28;20019;-39
2021/12/27 05:16:33;;;;;;;18.30;13.13;;;16.00;71.10;;;;;;5091514;28;20020;-35
2021/12/27 05:18:58;;;;;;;20.42;13.98;;;16.00;71.30;;;;;;5091849;28;20035;-34
2021/12/27 05:21:24;;;;;;;20.30;13.15;;;15.90;71.40;;;;;;5102817;28;20027;-38
2021/12/27 05:23:50;;;;;;;22.20;13.25;;;15.90;71.50;;;;;;5106379;28;20016;-35
2021/12/27 05:26:15;;;;;;;21.48;13.35;;;16.00;71.50;;;;;;5098232;28;20031;-38
2021/12/27 05:28:41;;;;;;;22.58;13.30;;;16.00;71.30;;;;;;5095448;28;20032;-34
2021/12/27 05:31:07;;;;;;;19.67;12.48;;;16.00;71.20;;;;;;5089381;28;20016;-36
2021/12/27 05:33:32;;;;;;;21.30;12.93;;;16.00;71.20;;;;;;5081379;28;20039;-37
2021/12/27 05:35:58;;;;;;;22.60;12.48;;;16.00;71.00;;;;;;5089078;28;20027;-33
2021/12/27 05:38:23;;;;;;;22.48;13.25;;;16.00;70.90;;;;;;5073804;28;20822;-37
2021/12/27 05:40:49;;;;;;;18.73;12.20;;;16.00;70.90;;;;;;5091967;28;20035;-35
2021/12/27 05:43:14;;;;;;;19.38;13.20;;;15.70;70.50;;;;;;5110113;28;20484;-36
2021/12/27 05:45:41;;;;;;;25.88;14.30;;;15.80;70.70;;;;;;5099269;28;20020;-33
2021/12/27 05:48:07;;;;;;;24.48;14.05;;;15.90;70.30;;;;;;5108505;28;20020;-38
2021/12/27 05:50:33;;;;;;;24.35;13.07;;;15.90;70.10;;;;;;5107887;28;20104;-37
2021/12/27 05:52:59;;;;;;;22.52;13.13;;;15.90;70.10;;;;;;5093351;28;20059;-37
2021/12/27 05:55:25;;;;;;;18.80;12.15;;;15.90;70.10;;;;;;5093850;28;20086;-37
2021/12/27 05:57:50;;;;;;;19.67;13.63;;;16.00;70.10;;;;;;5089766;28;20077;-38
2021/12/27 06:00:17;;;;;;;23.90;11.88;;;16.00;69.70;;;;;;5092483;28;20172;-41
2021/12/27 06:02:43;;;;;;;22.30;13.68;;;16.00;69.70;;;;;;5098229;28;20020;-37
2021/12/27 06:05:09;;;;;;;18.58;12.13;;;16.00;69.60;;;;;;5093395;28;20045;-35
2021/12/27 06:07:36;;;;;;;19.33;12.60;;;16.00;69.50;;;;;;5097957;27;20516;-36
2021/12/27 06:10:02;;;;;;;16.27;11.55;;;16.00;69.90;;;;;;5108231;28;20020;-34
2021/12/27 06:12:28;;;;;;;24.60;12.93;;;16.00;70.00;;;;;;5098659;28;20011;-33
2021/12/27 06:14:54;;;;;;;19.48;12.50;;;16.10;69.70;;;;;;5109904;28;20080;-34
2021/12/27 06:17:21;;;;;;;18.05;11.73;;;16.20;69.60;;;;;;5090036;28;20372;-34
2021/12/27 06:19:47;;;;;;;21.35;11.75;;;16.10;69.40;;;;;;5071733;28;20034;-36
2021/12/27 06:22:13;;;;;;;21.73;10.77;;;16.10;69.80;;;;;;5094903;28;20024;-36
2021/12/27 06:24:38;;;;;;;17.25;11.50;;;16.10;70.00;;;;;;5108765;28;20325;-31
2021/12/27 06:27:04;;;;;;;17.80;10.80;;;16.00;69.90;;;;;;5105072;28;20024;-35
2021/12/27 06:29:30;;;;;;;18.98;11.00;;;16.20;70.00;;;;;;5086294;28;20021;-36
2021/12/27 06:31:55;;;;;;;19.90;12.00;;;16.20;69.80;;;;;;5089400;28;20379;-37
2021/12/27 06:34:21;;;;;;;18.25;10.70;;;16.20;69.80;;;;;;5093026;28;20066;-39
2021/12/27 06:36:46;;;;;;;24.30;12.95;;;16.20;69.80;;;;;;5093793;28;20055;-38
2021/12/27 06:39:12;;;;;;;16.75;10.65;;;16.10;70.10;;;;;;5094923;28;20047;-34
2021/12/27 06:41:38;;;;;;;20.73;11.90;;;16.10;70.00;;;;;;5089017;28;20024;-37
2021/12/27 06:44:04;;;;;;;18.15;11.00;;;16.20;70.20;;;;;;5098895;28;20016;-34
2021/12/27 06:46:30;;;;;;;21.90;10.77;;;16.20;70.00;;;;;;5107096;28;20110;-39
2021/12/27 06:48:55;;;;;;;17.02;10.25;;;16.30;70.00;;;;;;5096670;28;20110;-38
2021/12/27 06:51:21;;;;;;;14.43;10.25;;;16.20;69.90;;;;;;5078444;28;20437;-35
2021/12/27 06:53:47;;;;;;;19.38;10.55;;;16.20;70.20;;;;;;5095683;28;20090;-34
2021/12/27 06:56:12;;;;;;;15.27;10.50;;;16.20;69.80;;;;;;5108434;28;20155;-35
2021/12/27 06:58:38;;;;;;;15.57;10.18;;;16.20;70.00;;;;;;5100723;28;20016;-35
2021/12/27 07:01:04;;;;;;;20.92;11.02;;;16.20;70.10;;;;;;5088203;28;20032;-34
2021/12/27 07:03:30;;;;;;;15.88;10.85;;;16.20;70.10;;;;;;5095148;28;20024;-34
2021/12/27 07:05:56;;;;;;;15.40;9.60;;;16.20;71.00;;;;;;5072750;28;20071;-33
2021/12/27 07:08:22;;;;;;;18.42;10.75;;;16.20;70.50;;;;;;5084931;28;20059;-36
2021/12/27 07:10:49;;;;;;;14.73;9.48;;;16.20;70.30;;;;;;5105598;28;20028;-38
2021/12/27 07:13:15;;;;;;;21.48;10.88;;;16.20;70.10;;;;;;5098033;28;20412;-36
2021/12/27 07:15:44;;;;;;;12.77;9.73;;;16.30;70.20;;;;;;5080670;28;20021;-37
2021/12/27 07:18:20;;;;;;;18.58;10.73;;;16.30;70.10;;;;;;5081775;28;20024;-35
2021/12/27 07:20:46;;;;;;;16.05;9.77;;;16.30;70.00;;;;;;5077644;28;20031;-35
2021/12/27 07:23:12;;;;;;;14.43;9.32;;;16.20;70.20;;;;;;5077990;28;20021;-38
2021/12/27 07:25:38;;;;;;;13.48;8.73;;;16.20;70.30;;;;;;5080121;28;20044;-34
2021/12/27 07:28:05;;;;;;;16.75;10.38;;;16.20;70.20;;;;;;5086217;28;20051;-34
2021/12/27 07:30:31;;;;;;;14.10;9.77;;;16.30;70.20;;;;;;5076992;28;20016;-35
2021/12/27 07:32:57;;;;;;;15.88;9.30;;;16.20;70.20;;;;;;5081490;28;20020;-37
2021/12/27 07:35:25;;;;;;;16.83;9.95;;;16.30;70.20;;;;;;5096392;28;20023;-34
2021/12/27 07:37:50;;;;;;;13.05;9.82;;;16.20;70.20;;;;;;5102377;28;20069;-33
2021/12/27 07:40:16;;;;;;;13.38;9.68;;;16.20;70.60;;;;;;5096280;28;20686;-36
2021/12/27 07:42:41;;;;;;;15.25;9.23;;;16.20;70.00;;;;;;5107986;28;20019;-34
2021/12/27 07:45:08;;;;;;;14.13;9.27;;;16.30;70.20;;;;;;5092685;28;20880;-34
2021/12/27 07:47:34;;;;;;;17.15;9.68;;;16.30;70.20;;;;;;5087421;28;20080;-37
2021/12/27 07:49:59;;;;;;;13.20;8.57;;;16.30;70.10;;;;;;5085008;28;20027;-36
2021/12/27 07:52:25;;;;;;;17.35;9.20;;;16.30;70.40;;;;;;5081655;28;20106;-38
2021/12/27 07:54:51;;;;;;;14.50;9.02;;;16.30;70.30;;;;;;5081233;28;20119;-34
2021/12/27 07:57:16;;;;;;;20.45;8.95;;;16.30;70.40;;;;;;5075670;28;20036;-33
2021/12/27 07:59:42;;;;;;;15.63;8.15;;;16.30;70.40;;;;;;5094596;28;20031;-32
2021/12/27 08:02:10;;;;;;;15.00;8.85;;;16.40;70.40;;;;;;5095383;28;20031;-36
2021/12/27 08:04:37;;;;;;;13.60;7.93;;;16.30;70.50;;;;;;5095396;28;20023;-35
2021/12/27 08:07:03;;;;;;;13.73;8.60;;;16.40;70.70;;;;;;5098459;28;20091;-35
2021/12/27 08:09:28;;;;;;;27.88;8.43;;;16.30;70.30;;;;;;5093060;28;20035;-35
2021/12/27 08:11:54;;;;;;;11.52;9.13;;;16.30;70.70;;;;;;5101364;28;20043;-35
2021/12/27 08:14:20;;;;;;;17.27;7.80;;;16.40;70.60;;;;;;5092427;28;20716;-35
2021/12/27 08:16:45;;;;;;;13.38;8.57;;;16.40;70.50;;;;;;5101028;28;20336;-35
2021/12/27 08:19:11;;;;;;;12.65;8.18;;;16.40;70.60;;;;;;5091219;28;20089;-37
2021/12/27 08:21:37;;;;;;;12.18;7.95;;;16.40;70.80;;;;;;5107453;28;20034;-34
2021/12/27 08:24:05;;;;;;;11.23;7.72;;;16.40;70.90;;;;;;5110900;28;20442;-34
2021/12/27 08:26:30;;;;;;;15.95;8.18;;;16.50;70.80;;;;;;5098454;28;20078;-37
2021/12/27 08:28:56;;;;;;;17.10;7.85;;;16.50;71.00;;;;;;5111291;28;20099;-39
2021/12/27 08:31:23;;;;;;;11.98;7.00;;;16.60;70.80;;;;;;5098492;28;20028;-33
2021/12/27 08:33:48;;;;;;;9.95;7.28;;;16.70;70.60;;;;;;5110979;28;20027;-38
2021/12/27 08:36:14;;;;;;;11.13;7.72;;;16.90;70.40;;;;;;5100980;28;20032;-37
2021/12/27 08:38:40;;;;;;;18.88;7.75;;;17.00;70.10;;;;;;5105474;28;20024;-40
2021/12/27 08:41:06;;;;;;;11.50;7.15;;;17.30;70.30;;;;;;5106029;28;20146;-35
2021/12/27 08:43:31;;;;;;;11.32;7.53;;;17.30;70.20;;;;;;5096532;28;20020;-39
2021/12/27 08:45:59;;;;;;;10.65;6.90;;;17.40;70.70;;;;;;5094972;28;20019;-34
2021/12/27 08:48:24;;;;;;;12.27;6.78;;;17.40;70.80;;;;;;5111673;28;20530;-33
2021/12/27 08:50:50;;;;;;;12.07;7.10;;;17.40;70.40;;;;;;5107134;28;20024;-35
2021/12/27 08:53:16;;;;;;;15.07;7.53;;;17.50;70.70;;;;;;5110303;28;20019;-38
2021/12/27 08:55:41;;;;;;;14.23;6.80;;;17.50;70.90;;;;;;5109861;28;20090;-35
2021/12/27 08:58:07;;;;;;;11.05;6.80;;;17.50;70.70;;;;;;5099755;28;20019;-33
2021/12/27 09:00:33;;;;;;;13.45;6.22;;;17.50;71.20;;;;;;5110165;28;20606;-39
2021/12/27 09:02:59;;;;;;;13.98;6.93;;;17.60;70.80;;;;;;5098059;28;20028;-35
2021/12/27 09:05:24;;;;;;;12.93;6.82;;;17.60;70.60;;;;;;5090872;28;20024;-37
2021/12/27 09:07:50;;;;;;;14.27;6.00;;;17.50;70.60;;;;;;5103294;28;20032;-40
2021/12/27 09:10:16;;;;;;;14.85;7.28;;;17.60;70.40;;;;;;5089747;28;20028;-32
2021/12/27 09:12:42;;;;;;;11.07;6.32;;;17.60;70.50;;;;;;5101983;28;20061;-37
2021/12/27 09:15:08;;;;;;;16.13;7.82;;;17.60;70.30;;;;;;5091490;28;20103;-32
2021/12/27 09:17:35;;;;;;;11.77;7.07;;;17.40;64.30;;;;;;5099972;28;20015;-38
2021/12/27 09:20:00;;;;;;;12.00;7.45;;;16.80;69.40;;;;;;5093506;28;20370;-37
2021/12/27 09:22:26;;;;;;;13.90;7.38;;;17.10;69.60;;;;;;5097507;28;20015;-34
2021/12/27 09:24:51;;;;;;;11.15;6.53;;;17.40;68.60;;;;;;5096446;28;20024;-40
2021/12/27 09:27:17;;;;;;;11.38;6.60;;;17.50;68.90;;;;;;5093940;28;20016;-37
2021/12/27 09:29:43;;;;;;;13.38;7.05;;;17.70;68.40;;;;;;5098876;28;20122;-39
2021/12/27 09:32:10;;;;;;;16.17;6.82;;;17.70;68.30;;;;;;5091565;28;20434;-36
2021/12/27 09:34:37;;;;;;;9.38;6.22;;;17.70;68.50;;;;;;5101255;28;20095;-37
2021/12/27 09:37:02;;;;;;;12.70;6.05;;;17.80;68.20;;;;;;5091448;28;20779;-37
2021/12/27 09:39:28;;;;;;;10.65;6.63;;;17.90;68.70;;;;;;5101409;28;20036;-40
2021/12/27 09:41:54;;;;;;;10.57;5.75;;;17.90;68.20;;;;;;5090893;28;20024;-34
2021/12/27 09:44:20;;;;;;;12.65;6.68;;;17.90;68.20;;;;;;5102303;28;20020;-38
2021/12/27 09:46:46;;;;;;;9.85;5.57;;;17.90;68.50;;;;;;5090453;28;20012;-37
2021/12/27 09:49:14;;;;;;;10.10;5.72;;;17.90;68.00;;;;;;5092791;28;20027;-33
2021/12/27 09:51:40;;;;;;;11.02;5.55;;;18.00;67.90;;;;;;5110450;28;20062;-37
2021/12/27 09:54:07;;;;;;;9.55;5.50;;;18.00;68.10;;;;;;5104421;28;20692;-34
2021/12/27 09:56:33;;;;;;;10.02;5.72;;;18.00;68.60;;;;;;5090007;28;20048;-38
2021/12/27 09:58:58;;;;;;;9.77;5.80;;;18.00;68.00;;;;;;5093940;28;22671;-35
2021/12/27 10:01:24;;;;;;;13.60;4.90;;;18.10;67.80;;;;;;5090649;28;20112;-37
2021/12/27 10:03:58;;;;;;;15.52;6.13;;;18.10;68.00;;;;;;5085180;28;20016;-37
2021/12/27 10:06:26;;;;;;;14.82;6.45;;;18.10;67.70;;;;;;5102736;28;20035;-37
2021/12/27 10:08:56;;;;;;;11.88;5.72;;;18.10;67.40;;;;;;5104094;28;20275;-40
2021/12/27 10:11:26;;;;;;;;;;;18.10;67.50;;;;;;5087606;28;20032;-37
2021/12/27 10:14:15;;;;;;;11.20;5.15;;;18.20;67.90;;;;;;5084197;28;19926;-40
2021/12/27 10:16:54;;;;;;;9.15;5.03;;;18.20;67.80;;;;;;5105921;28;20039;-38
2021/12/27 10:19:21;;;;;;;9.52;4.45;;;18.30;67.70;;;;;;5099512;28;20027;-34
2021/12/27 10:21:50;;;;;;;9.43;4.63;;;18.30;67.70;;;;;;5077192;28;20020;-32
2021/12/27 10:24:17;;;;;;;13.95;5.13;;;18.30;67.20;;;;;;5081997;28;20024;-36
2021/12/27 10:26:44;;;;;;;11.00;4.82;;;18.20;66.90;;;;;;5101632;28;20020;-33
2021/12/27 10:29:22;;;;;;;10.57;5.00;;;18.10;66.90;;;;;;5106639;27;20024;-39
2021/12/27 10:32:18;;;;;;;11.45;4.50;;;18.10;66.60;;;;;;5100949;28;20047;-41
2021/12/27 10:34:50;;;;;;;12.02;4.85;;;18.10;66.60;;;;;;5102758;28;20020;-40
2021/12/27 10:37:27;;;;;;;9.77;6.00;;;18.10;67.00;;;;;;5098093;28;20024;-38
2021/12/27 10:40:04;;;;;;;11.15;5.40;;;18.10;66.60;;;;;;5086789;28;20038;-37
2021/12/27 10:42:31;;;;;;;9.27;5.40;;;18.30;66.70;;;;;;5093977;27;20036;-40
2021/12/27 10:44:59;;;;;;;12.48;5.50;;;18.10;66.90;;;;;;5093139;28;20576;-37
2021/12/27 10:47:31;;;;;;;11.88;5.88;;;18.10;66.60;;;;;;5108270;28;20057;-41
2021/12/27 10:50:03;;;;;;;10.27;5.03;;;18.20;66.40;;;;;;5103776;28;20020;-39
2021/12/27 10:52:46;;;;;;;9.45;6.53;;;18.30;66.20;;;;;;5095027;28;20390;-39
2021/12/27 10:55:14;;;;;;;9.68;5.45;;;18.40;66.30;;;;;;5078680;28;20035;-41
2021/12/27 10:57:39;;;;;;;10.77;5.70;;;18.40;66.30;;;;;;5095256;28;20028;-40
2021/12/27 11:00:17;;;;;;;12.55;6.38;;;18.50;66.50;;;;;;5088537;28;20563;-41
2021/12/27 11:02:42;;;;;;;8.30;5.22;;;18.50;66.40;;;;;;5097319;28;20027;-41
2021/12/27 11:05:17;;;;;;;8.60;5.22;;;18.60;66.40;;;;;;5104975;28;20382;-35
2021/12/27 11:07:43;;;;;;;10.15;5.75;;;18.50;66.30;;;;;;5087300;28;20012;-39
2021/12/27 11:10:09;;;;;;;13.25;5.60;;;18.60;67.00;;;;;;5091652;28;20112;-36
2021/12/27 11:12:35;;;;;;;8.70;5.07;;;18.60;66.70;;;;;;5100154;28;20327;-41
2021/12/27 11:15:02;;;;;;;10.23;5.60;;;18.60;66.60;;;;;;5088710;28;20470;-39
2021/12/27 11:17:28;;;;;;;9.48;4.93;;;18.60;67.10;;;;;;5100277;28;20070;-38
2021/12/27 11:19:55;;;;;;;8.68;5.53;;;18.60;67.20;;;;;;5088130;28;20063;-41
2021/12/27 11:22:21;;;;;;;12.82;6.10;;;18.60;67.00;;;;;;5100832;28;20485;-38
2021/12/27 11:24:47;;;;;;;8.45;5.10;;;18.60;67.20;;;;;;5088611;28;20026;-37
2021/12/27 11:27:14;;;;;;;6.70;4.50;;;18.60;67.30;;;;;;5100501;28;20070;-39
2021/12/27 11:29:40;;;;;;;8.48;5.05;;;18.60;67.20;;;;;;5088742;28;20035;-37
2021/12/27 11:32:16;;;;;;;8.52;5.28;;;18.60;66.90;;;;;;5089465;28;20012;-40
2021/12/27 11:35:04;;;;;;;7.32;4.93;;;18.60;67.60;;;;;;5091269;28;20024;-38
2021/12/27 11:37:38;;;;;;;9.13;4.47;;;18.70;67.10;;;;;;5095377;28;20030;-39
2021/12/27 11:40:06;;;;;;;9.15;4.68;;;18.70;67.50;;;;;;5067787;28;20032;-39
2021/12/27 11:42:52;;;;;;;9.95;5.10;;;18.90;67.70;;;;;;5093025;28;20046;-38
2021/12/27 11:45:37;;;;;;;8.48;4.93;;;18.90;67.10;;;;;;5067685;28;20024;-40
2021/12/27 11:48:11;;;;;;;11.45;5.15;;;19.00;67.00;;;;;;5097629;28;20035;-40
2021/12/27 11:50:58;;;;;;;8.18;4.57;;;19.10;67.10;;;;;;5075976;28;20031;-39
2021/12/27 11:53:27;;;;;;;8.05;4.78;;;19.10;66.60;;;;;;5091335;28;20031;-39
2021/12/27 11:55:54;;;;;;;7.77;4.70;;;19.20;66.50;;;;;;5108404;28;20446;-36
2021/12/27 11:58:35;;;;;;;7.78;4.82;;;19.30;65.90;;;;;;5094773;28;20088;-39
2021/12/27 12:01:25;;;;;;;10.85;5.13;;;19.30;66.30;;;;;;5067827;28;20039;-37
2021/12/27 12:03:54;;;;;;;7.78;4.45;;;19.30;66.70;;;;;;5095061;28;20032;-41
2021/12/27 12:06:35;;;;;;;6.28;4.07;;;19.40;67.00;;;;;;5067734;28;20135;-36
2021/12/27 12:09:01;;;;;;;7.53;4.82;;;19.40;66.70;;;;;;5102798;28;20030;-40
2021/12/27 12:11:32;;;;;;;7.13;4.75;;;19.40;66.80;;;;;;5108023;28;20031;-40
2021/12/27 12:13:59;;;;;;;7.43;4.68;;;19.40;66.70;;;;;;5101330;28;20035;-35
2021/12/27 12:16:26;;;;;;;7.20;4.28;;;19.50;66.70;;;;;;5087252;28;20401;-39
2021/12/27 12:19:12;;;;;;;7.20;3.95;;;19.50;66.80;;;;;;5098838;28;20032;-36
2021/12/27 12:21:41;;;;;;;12.35;4.15;;;19.60;66.80;;;;;;5066911;28;20134;-38
2021/12/27 12:24:12;;;;;;;5.63;3.58;;;19.60;66.50;;;;;;5095779;28;20016;-37
2021/12/27 12:27:23;;;;;;;6.43;4.43;;;19.60;66.30;;;;;;5067696;28;20021;-40
2021/12/27 12:29:48;;;;;;;;;;;19.60;66.30;;;;;;5076601;28;20485;-39
2021/12/27 12:32:15;;;;;;;9.27;4.20;;;19.60;66.80;;;;;;5072272;28;19904;-34
2021/12/27 12:34:42;;;;;;;10.20;4.60;;;19.60;67.00;;;;;;5090780;28;20052;-39
2021/12/27 12:37:11;;;;;;;6.15;4.10;;;19.40;66.20;;;;;;5107773;28;20496;-39